Details From LIPQ - Ronchi Dei Legionari
To LOWK - Klagenfurt Woerthersee
Flight Number -
Tags generated
Created
Modified
Stats Distance 61 nm / 113 km
Max Altitude 200 ft / 61 m
Waypoints 3
Social Downloads 1
Likes 0
Share VATSIM

Download

Looking for another format? Having issues loading an existing format? Contact us
Advertisement - Login to hide

Notes

Basic altitude profile: - Ascent Rate: 2500ft/min - Ascent Speed: 250kts - Cruise Altitude: 35000ft - Cruise Speed: 420kts - Descent Rate: 1500ft/min - Descent Speed: 250kts Options: - Use NATs: yes - Use PACOTS: yes - Use low airways: yes - Use high airways: yes

Route

LIPQ RCH LOWK

ID Type Via Altitude Latitude Longitude Leg Dist Tot Dist Heading (true) Name
O LIPQ APT - 0 ft / 0 m 45.82786˚ 13.46666˚ - 0 nm - Ronchi Dei Legionari
RCH VOR - 200 ft / 61 m 45.82971˚ 13.48027˚ 0 nm 0 nm 79° / 79° RONCHI DEI LEGIONARI VOR-DME
O LOWK APT - 0 ft / 0 m 46.64285˚ 14.33117˚ 60 nm 60 nm 36° / 36° Klagenfurt Woerthersee

Altitude Profile

Advertisement - Login to hide

LIPQ

Details ICAO LIPQ (TRS)
Name Ronchi Dei Legionari
Region Italy
Timezone Europe/Rome (UTC+1.0)
Stats Elevation 37 ft / 11 m (AMSL)
Location 45.827857° 13.466663°
Runways 1
Magnetic Variation 3.432° E

METAR

LIPQ 161850Z 02005KT CAVOK 04/M00 Q1011

Decode

TAF

TAF LIPQ 161700Z 1618/1718 VRB06KT 9999 FEW060

Decode

Departure Runways

ID Width Length Bearing (true) Bearing (mag) Surface Threshold Offset Overrun Length
09 148 ft / 45 m 9,819 ft / 2,993 m 90.42° 86.99° Asphalt 823 ft / 251 m 0 ft / 0 m
27 148 ft / 45 m 9,819 ft / 2,993 m 270.44° 267.01° Asphalt 10 ft / 3 m 190 ft / 58 m

LOWK

Details ICAO LOWK (KLU)
Name Klagenfurt Woerthersee
Region Austria
Timezone Europe/Vienna (UTC+1.0)
Stats Elevation 1,470 ft / 448 m (AMSL)
Location 46.642851° 14.331169°
Runways 2
Magnetic Variation 3.661° E

METAR

LOWK 161850Z VRB02KT 9999 FEW013 BKN015 01/M00 Q1012 R10L/19//95 NOSIG

Decode

TAF

TAF LOWK 161715Z 1618/1718 VRB02KT 8000 BKN015 TX02/1714Z TNM04/1706Z TEMPO 1618/1707 3000 BR BKN007 PROB30 TEMPO 1622/1707 0400 FZBCFG VV002

Decode

Destination Runways

ID Width Length Bearing (true) Bearing (mag) Surface Threshold Offset Overrun Length
10L 148 ft / 45 m 8,903 ft / 2,714 m 106.32° 102.66° Concrete 656 ft / 200 m 0 ft / 0 m
10R 89 ft / 27 m 2,329 ft / 710 m 106.42° 102.76° Grass 197 ft / 60 m 0 ft / 0 m
28L 89 ft / 27 m 2,329 ft / 710 m 286.43° 282.77° Grass 197 ft / 60 m 0 ft / 0 m
28R 148 ft / 45 m 8,903 ft / 2,714 m 286.34° 282.68° Concrete 0 ft / 0 m 0 ft / 0 m

Approach Navaids

Runway Type Ident Frequency Range Bearing (true) Bearing (mag) Slope Elevation
28R Localiser OEK 110.10 MHz 18 nm / 33 km 286.32° 282.66° - 1,470 ft / 448 m (AMSL)
28R Glidescope OEK 110.10 MHz 10 nm / 19 km 286.33° 282.67° 3.00° 1,479 ft / 451 m (AMSL)
28R DME OEK 110.10 MHz 18 nm / 33 km - - - 1,479 ft / 451 m (AMSL)

Popular Alternatives